Time;durP1;ratioP1;P1;durP2;ratioP2;P2;SDS_P1;SDS_P2;PMS_P1;PMS_P2;Temp;Humidity;BMP_temperature;BMP_pressure;BME280_temperature;BME280_humidity;BME280_pressure;Samples;Min_cycle;Max_cycle;Signal;HPM_P1;HPM_P2
2024/02/28 00:00:27;;;;;;;;;;;;;;;4.39;100.00;99288.25;5039588;28;20485;-77
2024/02/28 00:06:28;;;;;;;;;;;;;;;4.41;100.00;99296.84;5019022;28;20469;-79
2024/02/28 00:09:31;;;;;;;;;;;;;;;4.31;100.00;99296.78;4992969;28;19921;-77
2024/02/28 00:12:17;;;;;;;;;;;;;;;4.20;100.00;99296.72;4954456;28;20377;-78
2024/02/28 00:15:10;;;;;;;;;;;;;;;4.17;100.00;99293.94;4989723;28;20398;-77
2024/02/28 00:17:55;;;;;;;;;;;;;;;4.20;100.00;99304.91;4989419;28;19914;-78
2024/02/28 00:24:27;;;;;;;;;;;;;;;4.57;100.00;99306.72;4992929;28;19960;-78
2024/02/28 00:30:25;;;;;;;;;;;;;;;4.81;100.00;99309.63;4998261;28;19920;-80
2024/02/28 00:33:19;;;;;;;;;;;;;;;4.70;100.00;99314.22;5016446;28;19935;-78
2024/02/28 00:36:25;;;;;;;;;;;;;;;4.47;100.00;99313.69;4997121;28;19918;-78
2024/02/28 00:39:17;;;;;;;;;;;;;;;4.55;100.00;99314.53;5024394;28;20342;-77
2024/02/28 00:42:16;;;;;;;;;;;;;;;4.56;100.00;99314.16;5054717;28;19923;-79
2024/02/28 00:45:27;;;;;;;;;;;;;;;4.59;100.00;99307.91;5031444;28;19923;-76
2024/02/28 00:51:33;;;;;;;;;;;;;;;4.83;100.00;99318.22;5031275;28;19920;-76
2024/02/28 00:54:15;;;;;;;;;;;;;;;4.78;100.00;99317.78;5003272;28;19956;-79
2024/02/28 00:56:47;;;;;;;;;;;;;;;4.76;100.00;99322.88;5048685;28;20416;-75
2024/02/28 00:59:45;;;;;;;;;;;;;;;4.76;100.00;99317.41;5051058;28;19916;-79
2024/02/28 01:02:37;;;;;;;;;;;;;;;4.82;100.00;99315.88;5051314;28;19967;-79
2024/02/28 01:05:20;;;;;;;;;;;;;;;4.74;100.00;99312.31;5033890;28;19923;-76
2024/02/28 01:08:27;;;;;;;;;;;;;;;4.74;100.00;99317.00;5037542;28;19923;-79
2024/02/28 01:10:59;;;;;;;;;;;;;;;4.78;100.00;99329.53;5045843;28;19912;-79
2024/02/28 01:13:45;;;;;;;;;;;;;;;4.78;100.00;99326.78;5090345;28;20414;-77
2024/02/28 01:16:37;;;;;;;;;;;;;;;4.85;100.00;99326.06;5080154;28;19920;-77
2024/02/28 01:19:08;;;;;;;;;;;;;;;4.77;100.00;99330.69;5063821;28;19920;-79
2024/02/28 01:21:57;;;;;;;;;;;;;;;4.72;100.00;99341.22;5070890;28;19913;-78
2024/02/28 01:24:51;;;;;;;;;;;;;;;4.71;100.00;99332.22;5054112;28;20372;-76
2024/02/28 01:30:52;;;;;;;;;;;;;;;4.33;100.00;99338.22;5051498;28;19947;-76
2024/02/28 01:36:58;;;;;;;;;;;;;;;4.01;100.00;99332.47;5052313;28;19923;-80
2024/02/28 01:39:50;;;;;;;;;;;;;;;4.18;100.00;99329.09;5032490;28;20432;-77
2024/02/28 01:43:15;;;;;;;;;;;;;;;4.27;100.00;99328.78;5032202;28;19914;-76
2024/02/28 01:46:08;;;;;;;;;;;;;;;4.28;100.00;99333.88;5025233;28;19928;-77
2024/02/28 02:07:41;;;;;;;;;;;;;;;4.27;100.00;99340.53;5074974;28;19924;-80
2024/02/28 02:16:39;;;;;;;;;;;;;;;4.06;100.00;99346.59;5095967;28;19927;-80
2024/02/28 02:19:34;;;;;;;;;;;;;;;4.02;100.00;99353.97;5094477;28;20471;-77
2024/02/28 02:22:18;;;;;;;;;;;;;;;3.99;100.00;99351.97;5063684;28;20430;-78
2024/02/28 02:28:00;;;;;;;;;;;;;;;3.90;100.00;99351.53;5094780;28;19923;-78
2024/02/28 02:30:27;;;;;;;;;;;;;;;3.91;100.00;99363.25;5090690;28;20288;-78
2024/02/28 02:33:03;;;;;;;;;;;;;;;3.93;100.00;99356.22;5077262;28;19919;-79
2024/02/28 02:36:22;;;;;;;;;;;;;;;3.90;100.00;99354.25;5094794;28;19912;-77
2024/02/28 02:39:02;;;;;;;;;;;;;;;3.82;100.00;99360.81;5025967;28;19923;-77
2024/02/28 02:44:42;;;;;;;;;;;;;;;4.04;100.00;99357.09;5046997;28;19920;-77
2024/02/28 02:47:44;;;;;;;;;;;;;;;4.19;100.00;99354.50;5007653;28;19916;-79
2024/02/28 02:50:33;;;;;;;;;;;;;;;4.29;100.00;99351.84;5067046;28;19913;-78
2024/02/28 02:53:12;;;;;;;;;;;;;;;4.39;100.00;99358.59;5051052;28;19917;-78
2024/02/28 03:02:24;;;;;;;;;;;;;;;4.35;100.00;99360.50;5061222;28;19920;-76
2024/02/28 03:05:12;;;;;;;;;;;;;;;4.38;100.00;99359.75;5040934;28;19917;-79
2024/02/28 03:07:52;;;;;;;;;;;;;;;4.37;100.00;99356.22;5034621;28;19958;-77
2024/02/28 03:10:27;;;;;;;;;;;;;;;4.36;100.00;99364.81;5100588;28;19911;-79
2024/02/28 03:12:58;;;;;;;;;;;;;;;4.36;100.00;99368.34;5096442;28;19922;-77
2024/02/28 03:16:01;;;;;;;;;;;;;;;4.15;100.00;99370.91;5128914;27;19966;-77
2024/02/28 03:18:28;;;;;;;;;;;;;;;3.99;100.00;99373.84;5108440;27;20390;-77
2024/02/28 03:20:54;;;;;;;;;;;;;;;3.95;100.00;99375.78;5099361;28;19911;-77
2024/02/28 03:23:42;;;;;;;;;;;;;;;3.84;100.00;99374.09;5109186;27;19919;-78
2024/02/28 03:26:39;;;;;;;;;;;;;;;3.67;100.00;99370.03;5102267;28;19965;-78
2024/02/28 03:29:04;;;;;;;;;;;;;;;3.66;100.00;99371.97;5101611;27;19911;-76
2024/02/28 03:31:59;;;;;;;;;;;;;;;3.73;100.00;99376.72;5105636;28;19919;-76
2024/02/28 03:34:41;;;;;;;;;;;;;;;3.68;100.00;99368.84;5111095;27;20448;-84
2024/02/28 03:37:19;;;;;;;;;;;;;;;3.55;100.00;99379.25;5119093;27;20520;-79
2024/02/28 03:39:48;;;;;;;;;;;;;;;3.53;100.00;99378.06;5116079;28;19926;-80
2024/02/28 03:42:19;;;;;;;;;;;;;;;3.49;100.00;99377.22;5097642;28;19912;-78
2024/02/28 03:44:57;;;;;;;;;;;;;;;3.47;100.00;99385.78;5116249;28;19911;-77
2024/02/28 03:47:32;;;;;;;;;;;;;;;3.49;100.00;99377.22;5112777;27;19954;-78
2024/02/28 03:50:11;;;;;;;;;;;;;;;3.40;100.00;99384.91;5106251;27;19961;-77
2024/02/28 03:52:45;;;;;;;;;;;;;;;3.35;100.00;99390.72;5106445;28;19923;-78
2024/02/28 03:55:20;;;;;;;;;;;;;;;3.42;100.00;99390.78;5134599;27;19911;-78
2024/02/28 03:58:30;;;;;;;;;;;;;;;3.53;100.00;99394.44;5121744;27;19911;-78
2024/02/28 04:07:25;;;;;;;;;;;;;;;3.71;100.00;99391.91;5055149;28;19927;-82
2024/02/28 04:10:40;;;;;;;;;;;;;;;3.52;100.00;99392.88;5071035;28;20072;-84
2024/02/28 04:19:39;;;;;;;;;;;;;;;3.59;100.00;99392.94;5053145;28;19963;-79
2024/02/28 04:22:50;;;;;;;;;;;;;;;3.71;100.00;99384.50;5050396;28;19928;-79
2024/02/28 04:29:12;;;;;;;;;;;;;;;3.91;100.00;99377.69;5012613;28;20020;-76
2024/02/28 04:31:57;;;;;;;;;;;;;;;3.99;100.00;99384.00;4996300;28;20439;-78
2024/02/28 04:35:07;;;;;;;;;;;;;;;4.00;100.00;99374.66;4998536;28;20486;-79
2024/02/28 04:41:13;;;;;;;;;;;;;;;3.93;100.00;99377.31;5011695;28;19919;-77
2024/02/28 04:43:47;;;;;;;;;;;;;;;3.88;100.00;99377.66;4992931;28;20404;-78
2024/02/28 04:49:48;;;;;;;;;;;;;;;3.91;100.00;99374.19;5012666;28;20333;-78
2024/02/28 04:52:33;;;;;;;;;;;;;;;3.90;100.00;99378.06;4995924;28;19913;-80
2024/02/28 04:55:38;;;;;;;;;;;;;;;3.88;100.00;99377.66;5017041;28;19936;-78
2024/02/28 05:01:28;;;;;;;;;;;;;;;3.84;100.00;99387.75;5049818;28;19970;-78
2024/02/28 05:04:36;;;;;;;;;;;;;;;3.86;100.00;99394.41;5051860;28;19913;-79
2024/02/28 05:07:59;;;;;;;;;;;;;;;3.81;100.00;99391.22;5032738;28;20301;-76
2024/02/28 05:13:44;;;;;;;;;;;;;;;3.82;100.00;99407.25;5040514;28;20002;-78
2024/02/28 05:20:00;;;;;;;;;;;;;;;3.79;100.00;99410.75;5052752;28;19927;-77
2024/02/28 05:26:15;;;;;;;;;;;;;;;3.67;100.00;99411.81;4994309;28;19929;-79
2024/02/28 05:29:26;;;;;;;;;;;;;;;3.63;100.00;99404.69;4999603;28;19925;-81
2024/02/28 05:35:26;;;;;;;;;;;;;;;3.77;100.00;99410.34;5060790;28;19923;-79
2024/02/28 05:38:42;;;;;;;;;;;;;;;3.94;100.00;99417.16;5048517;28;19920;-79
2024/02/28 05:41:29;;;;;;;;;;;;;;;4.16;100.00;99427.13;5058179;28;19920;-77
2024/02/28 05:43:55;;;;;;;;;;;;;;;4.32;100.00;99430.44;5075560;28;19917;-79
2024/02/28 05:46:48;;;;;;;;;;;;;;;4.46;100.00;99432.53;5081788;28;20296;-78
2024/02/28 05:49:34;;;;;;;;;;;;;;;4.64;100.00;99436.16;5055377;28;19920;-77
2024/02/28 05:52:27;;;;;;;;;;;;;;;4.81;100.00;99443.75;5072823;28;19974;-78
2024/02/28 05:55:13;;;;;;;;;;;;;;;5.09;100.00;99443.16;5083648;28;19922;-79
2024/02/28 05:57:39;;;;;;;;;;;;;;;5.36;100.00;99445.69;5064493;28;20416;-79
2024/02/28 06:00:09;;;;;;;;;;;;;;;5.54;100.00;99443.81;5087989;28;19912;-79
2024/02/28 06:02:39;;;;;;;;;;;;;;;5.96;100.00;99459.69;5085014;28;19919;-78
2024/02/28 06:05:33;;;;;;;;;;;;;;;6.58;100.00;99453.91;5056619;28;20377;-78
2024/02/28 06:08:16;;;;;;;;;;;;;;;7.07;100.00;99455.88;5058112;28;20095;-80
2024/02/28 06:11:05;;;;;;;;;;;;;;;7.62;100.00;99458.91;5033723;28;19924;-79
2024/02/28 06:13:34;;;;;;;;;;;;;;;8.30;100.00;99465.69;5055085;28;19916;-81
2024/02/28 06:16:31;;;;;;;;;;;;;;;8.71;99.51;99462.28;5068637;28;19916;-79
2024/02/28 06:19:22;;;;;;;;;;;;;;;9.18;97.92;99455.16;5034033;28;19920;-79
2024/02/28 06:21:50;;;;;;;;;;;;;;;9.65;95.66;99456.25;5066494;28;20411;-77
2024/02/28 06:24:16;;;;;;;;;;;;;;;10.14;92.88;99472.19;5039502;28;19925;-79
2024/02/28 06:27:00;;;;;;;;;;;;;;;10.72;88.88;99470.22;5062006;28;19924;-78
2024/02/28 06:29:28;;;;;;;;;;;;;;;11.14;86.61;99473.50;5072420;28;19912;-76
2024/02/28 06:32:06;;;;;;;;;;;;;;;11.74;82.40;99466.88;5086019;28;19916;-76
2024/02/28 06:34:31;;;;;;;;;;;;;;;11.63;80.24;99480.13;5093688;28;19926;-78
2024/02/28 06:37:18;;;;;;;;;;;;;;;11.50;79.41;99474.44;5093920;28;19959;-79
2024/02/28 06:40:08;;;;;;;;;;;;;;;10.91;83.45;99466.00;5113592;28;19912;-80
2024/02/28 06:42:40;;;;;;;;;;;;;;;11.20;83.19;99467.06;5115173;28;19916;-78
2024/02/28 06:45:08;;;;;;;;;;;;;;;11.80;80.69;99471.50;5114019;28;20736;-78
2024/02/28 06:47:55;;;;;;;;;;;;;;;12.16;76.30;99470.78;5084456;28;19923;-76
2024/02/28 06:50:20;;;;;;;;;;;;;;;12.42;73.53;99478.09;5097075;28;19919;-76
2024/02/28 06:52:46;;;;;;;;;;;;;;;12.19;76.08;99479.00;5097232;28;20293;-79
2024/02/28 06:55:11;;;;;;;;;;;;;;;12.53;74.99;99480.66;5096044;28;20691;-76
2024/02/28 06:57:40;;;;;;;;;;;;;;;13.26;69.35;99473.75;5080655;28;20397;-78
2024/02/28 07:00:08;;;;;;;;;;;;;;;13.91;65.60;99474.38;5095230;28;20420;-77
2024/02/28 07:02:33;;;;;;;;;;;;;;;13.91;63.00;99487.47;5087299;28;19958;-78
2024/02/28 07:04:59;;;;;;;;;;;;;;;13.89;62.47;99489.91;5098053;28;19924;-76
2024/02/28 07:07:25;;;;;;;;;;;;;;;14.00;62.53;99495.94;5098214;28;19920;-76
2024/02/28 07:09:50;;;;;;;;;;;;;;;13.47;64.01;99495.41;5097019;28;19934;-79
2024/02/28 07:12:15;;;;;;;;;;;;;;;13.18;64.90;99489.03;5087372;28;20307;-78
2024/02/28 07:14:41;;;;;;;;;;;;;;;13.12;66.60;99494.31;5093390;28;20291;-76
2024/02/28 07:17:06;;;;;;;;;;;;;;;13.15;67.29;99489.88;5097183;28;19911;-76
2024/02/28 07:19:33;;;;;;;;;;;;;;;13.31;67.50;99481.56;5096857;28;19922;-77
2024/02/28 07:21:59;;;;;;;;;;;;;;;13.29;70.27;99478.44;5080028;28;20439;-77
2024/02/28 07:24:25;;;;;;;;;;;;;;;13.13;68.29;99492.31;5093422;28;20000;-75
2024/02/28 07:26:51;;;;;;;;;;;;;;;13.35;67.79;99480.25;5096948;28;19927;-78
2024/02/28 07:29:16;;;;;;;;;;;;;;;13.36;66.49;99486.56;5083183;28;19915;-77
2024/02/28 07:31:41;;;;;;;;;;;;;;;13.28;67.36;99487.97;5096984;28;20378;-80
2024/02/28 07:34:07;;;;;;;;;;;;;;;13.39;66.67;99489.25;5083145;28;19979;-81
2024/02/28 07:36:34;;;;;;;;;;;;;;;13.59;65.55;99491.91;5096865;28;19912;-77
2024/02/28 07:39:12;;;;;;;;;;;;;;;13.19;68.05;99496.13;5096644;28;19912;-78
2024/02/28 07:41:43;;;;;;;;;;;;;;;12.89;69.24;99494.47;5098828;28;20440;-78
2024/02/28 07:44:11;;;;;;;;;;;;;;;12.76;70.95;99479.72;5096240;28;19923;-76
2024/02/28 07:46:37;;;;;;;;;;;;;;;12.86;71.85;99482.22;5094381;28;19923;-78
2024/02/28 07:49:13;;;;;;;;;;;;;;;12.89;70.32;99478.59;5084970;28;19912;-76
2024/02/28 07:51:40;;;;;;;;;;;;;;;12.47;72.91;99491.47;5088282;28;19931;-79
2024/02/28 07:54:20;;;;;;;;;;;;;;;12.04;76.22;99485.25;5096543;28;19968;-79
2024/02/28 07:56:56;;;;;;;;;;;;;;;11.91;79.52;99481.56;5086268;28;19947;-76
2024/02/28 07:59:28;;;;;;;;;;;;;;;11.79;78.19;99472.69;5076503;28;19923;-77
2024/02/28 08:01:53;;;;;;;;;;;;;;;11.81;78.60;99472.28;5083592;28;19912;-77
2024/02/28 08:04:20;;;;;;;;;;;;;;;12.07;78.07;99473.31;5095493;28;19911;-75
2024/02/28 08:06:47;;;;;;;;;;;;;;;12.32;76.67;99470.03;5075308;28;20390;-78
2024/02/28 08:09:17;;;;;;;;;;;;;;;12.42;75.14;99480.06;5074206;28;19963;-77
2024/02/28 08:11:52;;;;;;;;;;;;;;;12.59;74.44;99467.84;5105952;28;20374;-78
2024/02/28 08:14:31;;;;;;;;;;;;;;;12.81;72.00;99473.66;5106763;28;19973;-76
2024/02/28 08:16:57;;;;;;;;;;;;;;;12.91;72.05;99472.59;5084184;28;19920;-76
2024/02/28 08:19:22;;;;;;;;;;;;;;;12.86;70.92;99470.34;5079244;28;19922;-80
2024/02/28 08:21:49;;;;;;;;;;;;;;;13.07;72.14;99469.06;5076330;28;19915;-77
2024/02/28 08:24:16;;;;;;;;;;;;;;;13.24;71.12;99465.06;5093356;28;19927;-78
2024/02/28 08:26:42;;;;;;;;;;;;;;;13.23;71.04;99458.75;5112897;28;19916;-77
2024/02/28 08:29:07;;;;;;;;;;;;;;;13.42;71.09;99459.84;5095241;28;19912;-78
2024/02/28 08:31:32;;;;;;;;;;;;;;;13.57;70.58;99463.00;5077287;28;19915;-78
2024/02/28 08:33:59;;;;;;;;;;;;;;;13.52;71.56;99456.00;5092984;28;21162;-77
2024/02/28 08:36:26;;;;;;;;;;;;;;;13.42;69.74;99454.28;5094792;28;19922;-76
2024/02/28 08:38:53;;;;;;;;;;;;;;;13.47;72.02;99459.31;5099898;28;19916;-77
2024/02/28 08:41:19;;;;;;;;;;;;;;;13.42;69.84;99457.06;5094812;28;19919;-76
2024/02/28 08:43:44;;;;;;;;;;;;;;;13.39;70.64;99455.16;5094396;28;20332;-77
2024/02/28 08:46:14;;;;;;;;;;;;;;;13.39;71.33;99455.16;5077648;28;19951;-76
2024/02/28 08:48:40;;;;;;;;;;;;;;;13.23;71.30;99455.97;5108139;28;19915;-80
2024/02/28 08:51:07;;;;;;;;;;;;;;;13.11;72.47;99458.66;5074680;28;19989;-75
2024/02/28 08:53:34;;;;;;;;;;;;;;;13.03;75.08;99455.25;5092618;28;19958;-78
2024/02/28 08:56:00;;;;;;;;;;;;;;;12.98;73.61;99451.03;5077483;28;19955;-77
2024/02/28 08:58:29;;;;;;;;;;;;;;;12.77;74.71;99456.31;5094114;28;19916;-78
2024/02/28 09:00:54;;;;;;;;;;;;;;;12.95;74.14;99463.00;5094332;28;19916;-75
2024/02/28 09:03:25;;;;;;;;;;;;;;;12.94;72.91;99461.44;5077758;28;19973;-79
2024/02/28 09:05:52;;;;;;;;;;;;;;;13.13;74.07;99459.03;5099450;28;20001;-77
2024/02/28 09:08:33;;;;;;;;;;;;;;;13.07;77.05;99455.19;5088320;28;20329;-79
2024/02/28 09:10:58;;;;;;;;;;;;;;;13.19;73.52;99458.06;5088602;28;20291;-77
2024/02/28 09:13:24;;;;;;;;;;;;;;;12.81;73.70;99462.56;5104203;28;19919;-78
2024/02/28 09:15:52;;;;;;;;;;;;;;;13.01;74.65;99461.25;5088936;28;19919;-77
2024/02/28 09:18:17;;;;;;;;;;;;;;;13.01;72.72;99446.63;5094608;28;19916;-77
2024/02/28 09:20:44;;;;;;;;;;;;;;;13.09;71.95;99445.19;5092125;28;19918;-76
2024/02/28 09:23:10;;;;;;;;;;;;;;;13.26;72.28;99452.31;5107875;28;20383;-78
2024/02/28 09:25:35;;;;;;;;;;;;;;;13.52;75.20;99442.13;5106892;28;20060;-79
2024/02/28 09:28:02;;;;;;;;;;;;;;;13.65;71.29;99445.72;5103780;28;19920;-77
2024/02/28 09:30:29;;;;;;;;;;;;;;;13.60;68.58;99443.50;5073973;28;19999;-77
2024/02/28 09:32:55;;;;;;;;;;;;;;;13.42;69.74;99443.19;5107837;28;19917;-76
2024/02/28 09:35:28;;;;;;;;;;;;;;;13.10;70.97;99445.97;5111288;28;19922;-77
2024/02/28 09:37:57;;;;;;;;;;;;;;;13.13;71.67;99440.38;5102684;28;19916;-77
2024/02/28 09:40:22;;;;;;;;;;;;;;;13.32;72.26;99439.47;5107973;28;19924;-77
2024/02/28 09:43:01;;;;;;;;;;;;;;;13.57;71.50;99438.00;5090742;28;19916;-76
2024/02/28 09:45:32;;;;;;;;;;;;;;;13.72;70.89;99436.41;5105335;28;19997;-77
2024/02/28 09:48:00;;;;;;;;;;;;;;;13.64;69.10;99433.06;5090952;28;20410;-79
2024/02/28 09:50:27;;;;;;;;;;;;;;;13.57;68.63;99432.47;5111850;28;19911;-77
2024/02/28 09:52:57;;;;;;;;;;;;;;;13.31;71.15;99435.16;5098930;28;19951;-77
2024/02/28 09:55:47;;;;;;;;;;;;;;;13.28;70.82;99429.69;5094362;28;19967;-77
2024/02/28 09:58:12;;;;;;;;;;;;;;;13.48;69.16;99430.34;5077283;28;20007;-78
2024/02/28 10:00:38;;;;;;;;;;;;;;;13.67;68.07;99415.53;5083899;28;19947;-77
2024/02/28 10:03:05;;;;;;;;;;;;;;;13.76;70.11;99418.44;5112020;28;19920;-79
2024/02/28 10:05:32;;;;;;;;;;;;;;;13.84;68.21;99424.56;5094654;28;20338;-78
2024/02/28 10:07:59;;;;;;;;;;;;;;;13.71;67.69;99416.19;5093869;28;19923;-78
2024/02/28 10:10:24;;;;;;;;;;;;;;;13.48;68.11;99413.69;5080552;28;19919;-78
2024/02/28 10:12:51;;;;;;;;;;;;;;;13.62;68.87;99407.72;5080717;28;19934;-79
2024/02/28 10:15:18;;;;;;;;;;;;;;;13.69;67.89;99407.50;5102874;28;19935;-80
2024/02/28 10:17:47;;;;;;;;;;;;;;;13.60;65.90;99406.59;5095567;28;19950;-77
2024/02/28 10:20:14;;;;;;;;;;;;;;;13.73;65.59;99404.66;5114988;28;19916;-79
2024/02/28 10:22:41;;;;;;;;;;;;;;;13.77;65.55;99397.78;5083468;28;19986;-78
2024/02/28 10:25:07;;;;;;;;;;;;;;;13.68;64.76;99397.63;5110744;28;19989;-77
2024/02/28 10:27:47;;;;;;;;;;;;;;;13.60;65.97;99395.50;5077626;28;19935;-79
2024/02/28 10:30:17;;;;;;;;;;;;;;;13.76;66.77;99396.22;5108331;28;19922;-78
2024/02/28 10:32:52;;;;;;;;;;;;;;;13.98;62.63;99393.59;5091145;28;19916;-79
2024/02/28 10:35:25;;;;;;;;;;;;;;;14.29;62.38;99385.47;5108886;28;19916;-80
2024/02/28 10:37:56;;;;;;;;;;;;;;;14.33;62.85;99388.16;5095428;28;19912;-79
2024/02/28 10:40:22;;;;;;;;;;;;;;;14.60;60.85;99386.50;5079976;28;19919;-78
2024/02/28 10:42:50;;;;;;;;;;;;;;;14.75;59.38;99384.03;5097084;28;19912;-77
2024/02/28 10:45:25;;;;;;;;;;;;;;;14.84;59.25;99378.56;5083714;28;19912;-77
2024/02/28 10:47:52;;;;;;;;;;;;;;;15.13;58.67;99370.00;5104118;28;19962;-78
2024/02/28 10:50:18;;;;;;;;;;;;;;;15.63;56.07;99374.59;5114084;28;19952;-78
2024/02/28 10:52:46;;;;;;;;;;;;;;;15.53;55.93;99364.63;5096878;28;19919;-77
2024/02/28 10:55:13;;;;;;;;;;;;;;;15.84;55.58;99364.66;5096706;28;19967;-80
2024/02/28 10:57:39;;;;;;;;;;;;;;;16.02;53.72;99364.78;5096872;28;19918;-78
2024/02/28 11:00:05;;;;;;;;;;;;;;;16.04;53.98;99353.91;5114990;28;20068;-78
2024/02/28 11:02:31;;;;;;;;;;;;;;;16.41;52.29;99356.84;5096702;28;19972;-78
2024/02/28 11:04:58;;;;;;;;;;;;;;;16.11;53.53;99350.06;5114208;28;20382;-77
2024/02/28 11:07:24;;;;;;;;;;;;;;;16.77;52.95;99345.03;5095005;28;20014;-77
2024/02/28 11:09:53;;;;;;;;;;;;;;;16.48;51.53;99345.41;5096494;28;20531;-78
2024/02/28 11:12:29;;;;;;;;;;;;;;;16.44;53.12;99340.00;5097406;28;20276;-78
2024/02/28 11:14:58;;;;;;;;;;;;;;;17.23;50.91;99329.09;5080482;28;19916;-78
2024/02/28 11:17:29;;;;;;;;;;;;;;;17.03;49.03;99335.94;5089891;28;20413;-79
2024/02/28 11:19:54;;;;;;;;;;;;;;;16.96;49.77;99327.84;5076685;28;19912;-79
2024/02/28 11:22:20;;;;;;;;;;;;;;;16.91;50.34;99317.31;5091487;28;19918;-75
2024/02/28 11:24:47;;;;;;;;;;;;;;;17.34;48.73;99310.63;5096257;28;19984;-77
2024/02/28 11:27:15;;;;;;;;;;;;;;;17.28;50.38;99308.91;5082290;28;19917;-77
2024/02/28 11:29:40;;;;;;;;;;;;;;;17.53;48.61;99316.19;5079991;28;19969;-77
2024/02/28 11:32:06;;;;;;;;;;;;;;;17.07;49.59;99319.00;5115480;28;19920;-78
2024/02/28 11:34:32;;;;;;;;;;;;;;;17.30;48.76;99314.81;5088118;28;19916;-78
2024/02/28 11:36:58;;;;;;;;;;;;;;;16.99;49.20;99312.97;5090304;28;19919;-77
2024/02/28 11:39:26;;;;;;;;;;;;;;;16.59;50.12;99312.25;5096110;28;19912;-78
2024/02/28 11:41:52;;;;;;;;;;;;;;;16.97;50.45;99312.66;5094509;28;19912;-77
2024/02/28 11:44:18;;;;;;;;;;;;;;;16.82;49.66;99308.91;5075627;28;20318;-78
2024/02/28 11:46:47;;;;;;;;;;;;;;;16.70;51.51;99309.81;5077309;28;20387;-76
2024/02/28 11:49:13;;;;;;;;;;;;;;;17.05;49.56;99311.13;5096132;28;19972;-78
2024/02/28 11:51:40;;;;;;;;;;;;;;;16.16;51.26;99302.88;5082013;28;19912;-77
2024/02/28 11:54:10;;;;;;;;;;;;;;;16.29;52.21;99297.16;5079217;28;20323;-79
2024/02/28 11:56:36;;;;;;;;;;;;;;;16.80;51.47;99294.66;5082746;28;19916;-77
2024/02/28 11:59:03;;;;;;;;;;;;;;;16.89;50.32;99291.09;5095830;28;19918;-76
2024/02/28 12:01:36;;;;;;;;;;;;;;;16.76;50.47;99294.03;5095660;28;19922;-78
2024/02/28 12:04:03;;;;;;;;;;;;;;;16.35;51.53;99295.31;5078942;28;19916;-77
2024/02/28 12:06:29;;;;;;;;;;;;;;;16.11;52.63;99286.75;5078576;28;20395;-79
2024/02/28 12:08:55;;;;;;;;;;;;;;;16.52;51.70;99290.25;5090673;28;19963;-79
2024/02/28 12:11:24;;;;;;;;;;;;;;;15.97;52.53;99278.97;5095320;28;19918;-76
2024/02/28 12:13:55;;;;;;;;;;;;;;;16.21;53.71;99277.16;5092330;28;20003;-78
2024/02/28 12:16:25;;;;;;;;;;;;;;;16.71;50.81;99269.53;5079059;28;20378;-77
2024/02/28 12:18:52;;;;;;;;;;;;;;;16.60;51.32;99263.63;5099398;28;20331;-77
2024/02/28 12:21:18;;;;;;;;;;;;;;;16.63;51.45;99262.72;5091791;28;19985;-77
2024/02/28 12:23:48;;;;;;;;;;;;;;;16.31;51.64;99263.25;5085889;28;20367;-77
2024/02/28 12:26:14;;;;;;;;;;;;;;;16.29;52.07;99258.13;5076248;28;20463;-78
2024/02/28 12:28:41;;;;;;;;;;;;;;;16.47;52.30;99258.16;5077050;28;19948;-77
2024/02/28 12:31:09;;;;;;;;;;;;;;;16.28;52.21;99257.34;5058443;28;20376;-80
2024/02/28 12:33:35;;;;;;;;;;;;;;;16.07;53.87;99241.50;5075004;28;20391;-77
2024/02/28 12:36:03;;;;;;;;;;;;;;;16.04;53.67;99244.44;5081692;28;19911;-81
2024/02/28 12:38:28;;;;;;;;;;;;;;;15.99;53.83;99248.59;5081113;28;19923;-78
2024/02/28 12:40:57;;;;;;;;;;;;;;;15.77;53.62;99247.91;5067986;28;20011;-77
2024/02/28 12:43:28;;;;;;;;;;;;;;;15.75;55.02;99251.16;5086694;28;20368;-79
2024/02/28 12:45:54;;;;;;;;;;;;;;;15.65;55.03;99246.78;5074408;28;19969;-77
2024/02/28 12:48:19;;;;;;;;;;;;;;;15.60;54.89;99241.81;5062471;28;19916;-77
2024/02/28 12:50:44;;;;;;;;;;;;;;;15.68;54.77;99242.28;5086375;28;19962;-80
2024/02/28 12:53:10;;;;;;;;;;;;;;;15.71;54.91;99235.81;5087391;28;19947;-78
2024/02/28 12:55:35;;;;;;;;;;;;;;;15.60;55.40;99239.03;5057799;28;20018;-78
2024/02/28 12:58:04;;;;;;;;;;;;;;;15.56;55.54;99240.38;5054486;28;20358;-79
2024/02/28 13:00:30;;;;;;;;;;;;;;;15.54;55.45;99237.28;5074030;28;20015;-78
2024/02/28 13:02:55;;;;;;;;;;;;;;;15.65;55.04;99232.84;5062594;28;19985;-77
2024/02/28 13:05:21;;;;;;;;;;;;;;;15.72;55.11;99235.38;5086350;28;20375;-76
2024/02/28 13:07:46;;;;;;;;;;;;;;;15.94;53.89;99235.28;5073703;28;20416;-75
2024/02/28 13:10:11;;;;;;;;;;;;;;;15.87;54.72;99227.19;5074152;28;19919;-78
2024/02/28 13:12:41;;;;;;;;;;;;;;;15.76;54.58;99230.41;5056903;28;19916;-77
2024/02/28 13:15:07;;;;;;;;;;;;;;;15.70;54.37;99226.69;5042223;28;19920;-78
2024/02/28 13:17:33;;;;;;;;;;;;;;;15.61;55.23;99229.41;5100386;28;19923;-79
2024/02/28 13:19:58;;;;;;;;;;;;;;;15.51;56.71;99233.38;5082050;28;19912;-78
2024/02/28 13:22:24;;;;;;;;;;;;;;;15.51;55.65;99230.59;5079421;28;19919;-77
2024/02/28 13:24:50;;;;;;;;;;;;;;;15.55;56.09;99228.50;5081787;28;19920;-77
2024/02/28 13:27:16;;;;;;;;;;;;;;;15.48;55.53;99225.94;5112333;28;19916;-78
2024/02/28 13:29:42;;;;;;;;;;;;;;;15.42;56.61;99222.97;5104357;28;19931;-77
2024/02/28 13:32:07;;;;;;;;;;;;;;;15.48;56.30;99223.16;5089422;28;20399;-78
2024/02/28 13:34:32;;;;;;;;;;;;;;;15.63;56.43;99212.25;5111913;28;19922;-78
2024/02/28 13:36:58;;;;;;;;;;;;;;;15.72;57.14;99213.09;5093908;28;19912;-78
2024/02/28 13:39:25;;;;;;;;;;;;;;;15.74;58.06;99215.38;5106871;28;19961;-78
2024/02/28 13:41:52;;;;;;;;;;;;;;;15.82;57.07;99211.88;5083697;28;20296;-80
2024/02/28 13:44:21;;;;;;;;;;;;;;;16.02;55.69;99214.25;5114672;28;19912;-78
2024/02/28 13:46:46;;;;;;;;;;;;;;;16.23;55.95;99202.19;5082680;28;20344;-75
2024/02/28 13:49:13;;;;;;;;;;;;;;;16.19;56.42;99204.38;5099262;28;19915;-77
2024/02/28 13:51:38;;;;;;;;;;;;;;;16.39;55.97;99200.38;5098679;28;19964;-77
2024/02/28 13:54:04;;;;;;;;;;;;;;;16.37;55.85;99200.84;5088963;28;19912;-79
2024/02/28 13:56:30;;;;;;;;;;;;;;;16.32;56.33;99197.88;5081591;28;20144;-77
2024/02/28 13:58:56;;;;;;;;;;;;;;;16.31;55.28;99191.53;5088424;28;19984;-77
2024/02/28 14:01:21;;;;;;;;;;;;;;;16.29;54.23;99191.22;5098870;28;20342;-80
2024/02/28 14:03:47;;;;;;;;;;;;;;;16.24;55.14;99203.75;5098671;28;20399;-78
2024/02/28 14:06:13;;;;;;;;;;;;;;;16.25;54.94;99198.97;5094109;28;19931;-77
2024/02/28 14:08:43;;;;;;;;;;;;;;;16.40;54.94;99197.09;5106417;28;19918;-75
2024/02/28 14:11:08;;;;;;;;;;;;;;;16.61;54.44;99195.44;5098667;28;19964;-78
2024/02/28 14:13:34;;;;;;;;;;;;;;;16.28;53.75;99198.78;5090235;28;19912;-78
2024/02/28 14:16:00;;;;;;;;;;;;;;;16.44;53.59;99197.75;5091924;28;19911;-78
2024/02/28 14:18:28;;;;;;;;;;;;;;;16.53;53.46;99206.09;5115551;28;19911;-77
2024/02/28 14:20:53;;;;;;;;;;;;;;;16.69;53.44;99213.44;5097160;28;19968;-76
2024/02/28 14:23:18;;;;;;;;;;;;;;;16.75;53.53;99211.56;5097381;28;19916;-78
2024/02/28 14:25:46;;;;;;;;;;;;;;;16.67;53.66;99213.13;5097172;28;19923;-77
2024/02/28 14:28:12;;;;;;;;;;;;;;;16.45;52.74;99210.44;5079643;28;19916;-78
2024/02/28 14:30:38;;;;;;;;;;;;;;;16.24;54.30;99214.91;5095454;28;19966;-78
2024/02/28 14:33:03;;;;;;;;;;;;;;;16.34;55.45;99207.31;5091250;28;19943;-78
2024/02/28 14:35:29;;;;;;;;;;;;;;;16.27;53.52;99202.06;5098180;28;20402;-76
2024/02/28 14:37:54;;;;;;;;;;;;;;;16.22;54.25;99192.28;5078279;28;19916;-78
2024/02/28 14:40:20;;;;;;;;;;;;;;;15.99;53.88;99197.66;5111739;28;19912;-77
2024/02/28 14:42:47;;;;;;;;;;;;;;;15.79;54.42;99204.41;5091827;28;19934;-77
2024/02/28 14:45:16;;;;;;;;;;;;;;;15.82;54.84;99206.28;5097930;28;19915;-79
2024/02/28 14:47:43;;;;;;;;;;;;;;;15.93;54.64;99207.88;5097730;28;20371;-76
2024/02/28 14:50:12;;;;;;;;;;;;;;;15.95;55.71;99197.81;5092890;28;19912;-77
2024/02/28 14:52:38;;;;;;;;;;;;;;;15.92;55.41;99201.50;5116157;28;19912;-78
2024/02/28 14:55:04;;;;;;;;;;;;;;;15.86;55.50;99204.13;5096812;28;19915;-77
2024/02/28 14:57:31;;;;;;;;;;;;;;;15.77;56.31;99198.53;5097726;28;20373;-77
2024/02/28 14:59:56;;;;;;;;;;;;;;;15.68;55.42;99200.50;5097719;28;19912;-77